Time;durP1;ratioP1;P1;durP2;ratioP2;P2;SDS_P1;SDS_P2;PMS_P1;PMS_P2;Temp;Humidity;BMP_temperature;BMP_pressure;BME280_temperature;BME280_humidity;BME280_pressure;Samples;Min_cycle;Max_cycle;Signal;HPM_P1;HPM_P2
2021/11/23 06:27:34;;;;;;;74.10;36.53;;;154.00;2252.80;;;;;;5942382;23;20122;31
2021/11/23 06:30:06;;;;;;;71.93;36.33;;;154.00;2252.80;;;;;;4815002;29;20038;-90
2021/11/23 06:33:23;;;;;;;93.38;40.95;;;154.10;2252.80;;;;;;4787830;29;20042;-90
2021/11/23 06:35:52;;;;;;;99.28;40.80;;;154.20;2252.80;;;;;;4778652;30;20026;-89
2021/11/23 09:12:53;;;;;;;21.80;13.27;;;333.20;1920.00;;;;;;4823803;29;20064;-92
2021/11/23 09:15:19;;;;;;;20.40;15.05;;;358.90;1638.40;;;;;;4809600;29;20038;-92
2021/11/23 09:17:47;;;;;;;23.95;13.38;;;384.80;1484.80;;;;;;4809503;29;20027;-90
2021/11/23 09:20:14;;;;;;;32.95;22.27;;;;;;;;;;4809266;29;20031;-92
2021/11/23 09:22:40;;;;;;;22.98;15.20;;;410.40;1433.60;;;;;;4809103;29;20058;-90
2021/11/23 09:25:08;;;;;;;103.13;53.17;;;435.40;1382.40;;;;;;4809225;29;20030;-93
2021/11/23 09:27:34;;;;;;;90.20;50.53;;;435.70;1331.20;;;;;;4809043;29;20080;-92
2021/11/23 09:30:01;;;;;;;47.72;31.33;;;435.70;1356.80;;;;;;4809216;29;20037;-87
2021/11/23 09:32:27;;;;;;;34.20;25.65;;;;;;;;;;4809391;29;20031;-90
2021/11/23 09:34:56;;;;;;;22.05;16.70;;;512.00;1152.00;;;;;;4803135;29;20031;-90
2021/11/23 09:37:22;;;;;;;30.50;19.25;;;537.80;1024.00;;;;;;4817376;29;20423;-86
2021/11/23 09:39:48;;;;;;;22.95;17.08;;;537.70;1075.20;;;;;;4813064;29;20034;-89
2021/11/23 09:42:14;;;;;;;29.33;21.48;;;537.90;1024.00;;;;;;4815191;29;20065;-87
2021/11/23 09:44:42;;;;;;;24.83;20.60;;;487.30;1049.60;;;;;;4816379;29;20557;-88
2021/11/23 09:47:08;;;;;;;23.63;19.00;;;486.80;1126.40;;;;;;4814986;29;20083;-89
2021/11/23 09:49:34;;;;;;;25.77;16.17;;;486.40;1126.40;;;;;;4815257;29;20122;-90
2021/11/23 09:52:02;;;;;;;17.85;15.15;;;487.10;1100.80;;;;;;4811187;29;20126;-83
2021/11/23 09:54:29;;;;;;;41.50;32.00;;;;;;;;;;4820518;29;20488;-89
2021/11/23 09:56:55;;;;;;;38.00;31.05;;;;;;;;;;4801064;29;20028;-89
2021/11/23 09:59:21;;;;;;;34.10;24.30;;;716.80;742.40;;;;;;4792042;29;20059;-89
2021/11/23 10:01:54;;;;;;;34.75;22.35;;;742.50;716.80;;;;;;4809458;29;20096;-89
2021/11/23 10:04:24;;;;;;;31.80;22.85;;;742.90;716.80;;;;;;4809614;29;20548;-89
2021/11/23 10:07:03;;;;;;;41.97;28.05;;;743.30;691.20;;;;;;4811833;29;20039;-87
2021/11/23 10:09:43;;;;;;;26.58;18.63;;;793.60;691.20;;;;;;4814540;29;20122;-87
2021/11/23 10:12:21;;;;;;;16.98;13.65;;;742.50;768.00;;;;;;4808992;29;20059;-86
2021/11/23 10:15:25;;;;;;;19.02;14.05;;;716.80;793.60;;;;;;4811306;29;20023;-87
2021/11/23 10:17:52;;;;;;;;;;;640.90;742.40;;;;;;4803876;29;20038;-90
2021/11/23 10:20:30;;;;;;;14.90;11.50;;;614.90;844.80;;;;;;4827237;29;19908;-88
2021/11/23 10:23:06;;;;;;;14.90;13.07;;;614.40;870.40;;;;;;4811981;29;20030;-89
2021/11/23 10:25:32;;;;;;;24.08;17.55;;;640.30;819.20;;;;;;4827072;29;20062;-89
2021/11/23 10:27:59;;;;;;;29.38;21.48;;;614.90;819.20;;;;;;4827947;29;20034;-90
2021/11/23 10:30:25;;;;;;;19.25;15.02;;;563.70;921.60;;;;;;4825919;29;20046;-89
2021/11/23 10:32:53;;;;;;;25.33;16.13;;;537.80;972.80;;;;;;4816878;29;20025;-89
2021/11/23 10:35:24;;;;;;;20.60;15.60;;;538.10;972.80;;;;;;4826945;29;20104;-89
2021/11/23 10:37:52;;;;;;;18.48;15.27;;;512.30;998.40;;;;;;4821774;29;20027;-89
2021/11/23 10:40:19;;;;;;;15.15;13.05;;;512.00;1049.60;;;;;;4805174;29;20121;-89
2021/11/23 10:42:51;;;;;;;24.67;20.65;;;512.80;1024.00;;;;;;4799785;29;20035;-80
2021/11/23 10:45:17;;;;;;;39.65;27.58;;;537.60;1049.60;;;;;;4815236;29;20022;-80
2021/11/23 10:47:46;;;;;;;29.70;18.33;;;563.50;972.80;;;;;;4826056;29;20038;-80
2021/11/23 10:50:14;;;;;;;24.23;18.30;;;563.30;972.80;;;;;;4805393;29;20055;-78
2021/11/23 10:52:45;;;;;;;35.95;26.95;;;614.70;819.20;;;;;;4825815;29;20095;-87
2021/11/23 10:55:23;;;;;;;34.17;24.45;;;640.30;768.00;;;;;;4826371;29;20026;-88
2021/11/23 10:57:50;;;;;;;28.77;20.05;;;666.40;768.00;;;;;;4811333;29;20030;-87
2021/11/23 11:00:17;;;;;;;22.05;17.30;;;614.50;819.20;;;;;;4821390;29;20058;-87
2021/11/23 11:02:43;;;;;;;35.83;21.95;;;512.40;998.40;;;;;;4823681;29;20030;-88
2021/11/23 11:05:14;;;;;;;29.55;21.48;;;486.60;1075.20;;;;;;4826606;29;20034;-87
2021/11/23 11:07:41;;;;;;;31.98;22.48;;;436.00;1126.40;;;;;;4826182;29;20039;-88
2021/11/23 11:10:08;;;;;;;22.70;17.10;;;410.20;1510.40;;;;;;4820759;29;20034;-87
2021/11/23 11:12:35;;;;;;;27.30;19.83;;;384.70;1280.00;;;;;;4818538;29;20046;-89
2021/11/23 11:15:03;;;;;;;22.45;15.27;;;384.00;1331.20;;;;;;4808249;29;20031;-89
2021/11/23 11:17:30;;;;;;;18.80;11.75;;;359.00;1356.80;;;;;;4815238;29;20038;-88
2021/11/23 11:19:59;;;;;;;13.35;11.63;;;358.80;1433.60;;;;;;4817256;29;20047;-89
2021/11/23 11:22:27;;;;;;;13.68;10.75;;;358.50;1433.60;;;;;;4814495;29;20117;-88
2021/11/23 11:25:19;;;;;;;15.38;11.43;;;333.60;1459.20;;;;;;4812649;29;20031;-90
2021/11/23 11:27:47;;;;;;;17.10;10.57;;;333.60;1484.80;;;;;;4807733;29;20037;-89
2021/11/23 11:30:31;;;;;;;16.23;10.60;;;333.40;1484.80;;;;;;4807812;29;20030;-90
2021/11/23 11:33:08;;;;;;;14.32;10.40;;;333.30;1459.20;;;;;;4792776;29;20397;-90
2021/11/23 11:35:46;;;;;;;22.92;15.88;;;333.30;1510.40;;;;;;4803749;29;20522;-90
2021/11/23 11:38:30;;;;;;;22.27;13.02;;;333.20;1484.80;;;;;;4810710;29;20503;-89
2021/11/23 11:41:06;;;;;;;27.73;20.90;;;333.10;1459.20;;;;;;4810530;29;20388;-89
2021/11/23 11:43:34;;;;;;;28.00;19.20;;;333.10;1484.80;;;;;;4825614;29;20060;-89
2021/11/23 11:46:01;;;;;;;20.75;13.18;;;333.10;1484.80;;;;;;4820008;29;20034;-90
2021/11/23 11:48:33;;;;;;;30.10;21.90;;;332.90;1484.80;;;;;;4818735;29;20186;-90
2021/11/23 11:51:04;;;;;;;31.67;23.52;;;332.90;1484.80;;;;;;4805527;29;20051;-91
2021/11/23 11:53:35;;;;;;;16.45;12.85;;;308.10;1459.20;;;;;;4814696;29;20023;-91
2021/11/23 11:56:01;;;;;;;20.10;15.05;;;308.10;1484.80;;;;;;4814317;29;20053;-91
2021/11/23 11:58:57;;;;;;;26.83;21.90;;;308.10;1536.00;;;;;;4812859;29;20027;-92
2021/11/23 12:01:37;;;;;;;17.45;13.32;;;332.80;1536.00;;;;;;4813689;29;20031;-88
2021/11/23 12:04:10;;;;;;;17.65;13.85;;;308.10;1510.40;;;;;;4825333;29;20038;-89
2021/11/23 12:07:00;;;;;;;14.37;11.20;;;333.40;1433.60;;;;;;4804828;29;20370;-91
2021/11/23 12:09:27;;;;;;;21.95;17.25;;;333.10;1459.20;;;;;;4794015;29;20031;-86
2021/11/23 12:12:15;;;;;;;21.40;16.10;;;333.30;1484.80;;;;;;4806682;29;20119;-91
2021/11/23 12:14:54;;;;;;;18.90;14.00;;;333.30;1459.20;;;;;;4821104;29;20559;-92
2021/11/23 12:17:51;;;;;;;20.05;13.90;;;333.40;1459.20;;;;;;4794173;29;20035;-89
2021/11/23 12:20:31;;;;;;;16.65;13.52;;;333.60;1459.20;;;;;;4791984;29;20027;-92
2021/11/23 12:23:15;;;;;;;19.83;15.27;;;358.60;1433.60;;;;;;4793362;29;20045;-91
2021/11/23 12:25:56;;;;;;;16.67;12.45;;;359.30;1356.80;;;;;;4793712;29;20532;-90
2021/11/23 12:28:23;;;;;;;20.88;12.85;;;410.40;1254.40;;;;;;4815070;29;20060;-90
2021/11/23 12:30:51;;;;;;;27.42;13.52;;;486.70;1049.60;;;;;;4817217;29;20045;-93
2021/11/23 12:33:17;;;;;;;16.20;11.15;;;512.10;998.40;;;;;;4815629;29;20496;-88
2021/11/23 12:35:43;;;;;;;16.77;11.68;;;;;;;;;;4817529;29;20034;-92
2021/11/23 12:38:22;;;;;;;15.48;11.85;;;614.60;844.80;;;;;;4800168;29;20058;-90
2021/11/23 12:40:50;;;;;;;21.33;15.05;;;;;;;;;;4816894;29;20083;-90
2021/11/23 12:43:19;;;;;;;19.13;13.65;;;;;;;;;;4803490;29;20489;-90
2021/11/23 12:45:46;;;;;;;14.73;11.75;;;614.80;819.20;;;;;;4801495;29;20061;-86
2021/11/23 12:48:28;;;;;;;18.05;13.35;;;665.70;768.00;;;;;;4814310;29;20035;-90
2021/11/23 12:50:55;;;;;;;23.25;17.45;;;691.80;691.20;;;;;;4815905;29;20035;-88
2021/11/23 12:53:22;;;;;;;26.23;18.52;;;692.10;665.60;;;;;;4815537;29;20091;-89
2021/11/23 12:55:55;;;;;;;15.63;12.88;;;691.80;716.80;;;;;;4808794;29;20035;-87
2021/11/23 12:58:33;;;;;;;18.25;13.15;;;717.50;640.00;;;;;;4791349;29;20035;-88
2021/11/23 13:01:02;;;;;;;27.33;19.35;;;742.50;691.20;;;;;;4806001;29;20471;-89
2021/11/23 13:03:28;;;;;;;23.40;17.67;;;742.50;665.60;;;;;;4809009;29;20031;-92
2021/11/23 13:05:54;;;;;;;18.25;13.25;;;742.70;665.60;;;;;;4805979;29;20033;-86
2021/11/23 13:08:21;;;;;;;18.45;12.88;;;768.40;588.80;;;;;;4807145;29;20476;-91
2021/11/23 13:10:49;;;;;;;18.45;14.57;;;793.60;614.40;;;;;;4806575;29;20039;-90
2021/11/23 13:13:24;;;;;;;30.83;16.17;;;794.10;588.80;;;;;;4806846;29;20491;-89
2021/11/23 13:15:52;;;;;;;21.27;15.95;;;794.50;563.20;;;;;;4812587;29;20129;-81
2021/11/23 13:18:29;;;;;;;23.88;15.70;;;819.20;537.60;;;;;;4810266;29;20106;-88
2021/11/23 13:20:58;;;;;;;21.77;15.23;;;794.30;563.20;;;;;;4816801;29;20063;-86
2021/11/23 13:23:28;;;;;;;20.42;15.95;;;793.90;563.20;;;;;;4822423;29;20090;-86
2021/11/23 13:26:01;;;;;;;21.02;15.90;;;793.90;563.20;;;;;;4815738;29;20030;-87
2021/11/23 13:28:54;;;;;;;15.07;12.35;;;768.70;563.20;;;;;;4795218;29;20087;-88
2021/11/23 13:31:25;;;;;;;17.08;13.27;;;768.00;614.40;;;;;;4792880;29;20462;-88
2021/11/23 13:34:07;;;;;;;28.92;19.77;;;768.20;563.20;;;;;;4829308;29;20112;-91
2021/11/23 13:36:43;;;;;;;17.55;12.05;;;743.10;614.40;;;;;;4830955;29;20026;-90
2021/11/23 13:39:23;;;;;;;18.75;15.48;;;742.50;640.00;;;;;;4830317;29;20130;-88
2021/11/23 13:41:54;;;;;;;25.92;17.65;;;717.20;665.60;;;;;;4831460;29;20065;-90
2021/11/23 13:44:24;;;;;;;23.88;16.33;;;692.10;640.00;;;;;;4831304;29;20091;-92
2021/11/23 13:47:13;;;;;;;23.42;14.25;;;691.70;640.00;;;;;;4831094;29;20042;-88
2021/11/23 13:49:44;;;;;;;28.00;17.05;;;691.30;665.60;;;;;;4816146;29;20030;-91
2021/11/23 13:52:18;;;;;;;41.15;23.05;;;665.70;691.20;;;;;;4830964;29;20046;-89
2021/11/23 13:54:48;;;;;;;52.05;26.05;;;640.50;716.80;;;;;;4820544;29;20114;-90
2021/11/23 13:57:20;;;;;;;44.88;25.65;;;615.10;742.40;;;;;;4827407;29;20034;-91
2021/11/23 14:00:16;;;;;;;36.83;22.38;;;614.40;768.00;;;;;;4796741;29;20029;-91
2021/11/23 14:02:57;;;;;;;25.15;16.15;;;589.00;819.20;;;;;;4785018;29;20075;-90
2021/11/23 14:05:38;;;;;;;22.33;16.85;;;563.90;844.80;;;;;;4827002;29;20026;-91
2021/11/23 14:08:06;;;;;;;21.58;14.95;;;537.90;921.60;;;;;;4814651;29;20064;-92
2021/11/23 14:10:39;;;;;;;29.90;17.27;;;486.50;1228.80;;;;;;4829697;29;20523;-92
2021/11/23 14:13:09;;;;;;;24.85;16.83;;;436.00;1075.20;;;;;;4829840;29;20504;-89
2021/11/23 14:15:41;;;;;;;31.25;18.15;;;410.40;1177.60;;;;;;4829991;29;20035;-91
2021/11/23 14:18:28;;;;;;;36.60;21.10;;;384.80;1228.80;;;;;;4826798;29;20101;-91
2021/11/23 14:21:18;;;;;;;31.58;19.85;;;384.20;1280.00;;;;;;4829671;29;20087;-92
2021/11/23 14:23:51;;;;;;;40.65;26.15;;;359.10;1331.20;;;;;;4811620;29;20031;-93
2021/11/23 14:26:44;;;;;;;42.28;27.00;;;358.70;1382.40;;;;;;4811562;29;20492;-91
2021/11/23 14:29:17;;;;;;;46.28;32.55;;;358.50;1433.60;;;;;;4811709;29;20046;-91
2021/11/23 14:31:44;;;;;;;59.80;45.13;;;333.50;1484.80;;;;;;4826329;29;20039;-90
2021/11/23 14:34:20;;;;;;;86.90;73.82;;;333.10;1536.00;;;;;;4817019;29;20034;-94
2021/11/23 14:36:47;;;;;;;68.88;46.67;;;332.80;1561.60;;;;;;4823848;29;20121;-94
2021/11/23 14:39:17;;;;;;;86.15;48.47;;;307.90;1587.20;;;;;;4827613;29;20083;-91
2021/11/23 14:41:44;;;;;;;86.03;57.38;;;307.70;1612.80;;;;;;4829581;29;20084;-93
2021/11/23 14:44:11;;;;;;;97.05;62.55;;;307.40;1664.00;;;;;;4829457;29;20038;-92
2021/11/23 14:46:38;;;;;;;155.25;96.57;;;307.50;1689.60;;;;;;4825918;29;20484;-91
2021/11/23 14:49:04;;;;;;;276.52;191.63;;;282.40;1715.20;;;;;;4826491;29;20483;-91
2021/11/23 14:51:30;;;;;;;206.02;145.35;;;282.30;1715.20;;;;;;4826530;29;20038;-81
2021/11/23 14:53:57;;;;;;;94.30;71.28;;;282.20;1766.40;;;;;;4820490;29;20038;-82
2021/11/23 14:56:24;;;;;;;44.58;30.27;;;282.00;1792.00;;;;;;4815532;29;20031;-81
2021/11/23 14:58:50;;;;;;;65.50;47.25;;;281.80;1843.20;;;;;;4816489;29;20128;-84
2021/11/23 15:01:17;;;;;;;57.20;38.40;;;281.70;1868.80;;;;;;4814836;29;20384;-82
2021/11/23 15:03:43;;;;;;;155.75;96.22;;;281.60;1868.80;;;;;;4815957;29;20054;-82
2021/11/23 15:06:09;;;;;;;155.77;95.28;;;256.90;1894.40;;;;;;4802154;29;20126;-81
2021/11/23 15:08:34;;;;;;;186.63;104.75;;;256.80;1894.40;;;;;;4820287;29;20033;-80
2021/11/23 15:11:01;;;;;;;143.77;77.65;;;256.70;1920.00;;;;;;4812541;29;20519;-81
2021/11/23 15:13:26;;;;;;;92.85;58.08;;;256.60;1945.60;;;;;;4799456;29;20062;-81
2021/11/23 15:22:16;;;;;;;69.63;44.17;;;256.10;2022.40;;;;;;4887841;29;20023;-89
2021/11/23 15:31:01;;;;;;;63.58;42.83;;;231.20;2099.20;;;;;;5156069;24;20065;-84
2021/11/23 15:33:27;;;;;;;91.57;57.45;;;231.00;2124.80;;;;;;4846011;29;20034;-82
2021/11/23 15:47:43;;;;;;;104.20;72.32;;;230.80;2176.00;;;;;;5083046;23;20054;-87
